Farmville, Virginia
Current Conditions -  °F | °C
As of 2:15 PM on Thursday 18 Dec 2014 (Local Time) from KFVX Reporting Station
Clear Clear  
Wind Chill: 11°   Ceiling: Unl
Heat Index: 11°   Visibility: 10mi
Dew Point: -6°   Wind: 5mph
Humidity: 30%   Direction: 270°W
Pressure: 30.07"   Gusts: NA
Location:  37.3°N, 78.39°W
Report Text: KFVX 181915Z AUTO 27004KT 10SM CLR 11/M06 A3007 RMK AO2 T01111060
Loading
Personal Weather Stations






























Interactive Weather Map New forecast layout! Learn more

10-Day Weather Forecast

Advertisements
Track Severe Weather on mobile